createdAt,value
2022-09-14T17:19:35.799Z,6.00
2022-09-14T17:22:04.511Z,8.02
2022-09-14T17:24:31.732Z,6.45
2022-09-14T17:26:58.871Z,7.13
2022-09-14T17:29:26.168Z,8.15
2022-09-14T17:31:55.642Z,18.90
2022-09-14T17:34:22.911Z,32.95
2022-09-14T17:36:50.046Z,12.20
2022-09-14T17:39:17.123Z,11.00
2022-09-14T17:41:44.547Z,10.95
2022-09-14T17:44:14.163Z,9.13
2022-09-14T17:46:51.200Z,10.05
2022-09-14T17:49:21.793Z,8.27
2022-09-14T17:51:49.523Z,10.00
2022-09-14T17:54:18.472Z,11.48
2022-09-14T17:56:45.743Z,11.05
2022-09-14T17:59:16.332Z,11.57
2022-09-14T18:01:43.607Z,12.20
2022-09-14T18:04:12.793Z,11.65
2022-09-14T18:06:44.451Z,13.88
2022-09-14T18:09:16.302Z,12.40
2022-09-14T18:11:44.449Z,13.65
2022-09-14T18:14:14.311Z,14.98
2022-09-14T18:16:42.456Z,14.95
2022-09-14T18:19:17.450Z,14.63
2022-09-14T18:21:48.907Z,14.95
2022-09-14T18:24:19.439Z,13.73
2022-09-14T18:26:46.795Z,13.32
2022-09-14T18:29:20.143Z,12.77
2022-09-14T18:31:47.949Z,14.93
2022-09-14T18:34:15.195Z,14.20
2022-09-14T18:36:42.379Z,13.93
2022-09-14T18:39:10.229Z,12.75
2022-09-14T18:41:37.308Z,13.90
2022-09-14T18:44:04.682Z,14.07
2022-09-14T18:46:32.341Z,15.27
2022-09-14T18:49:01.476Z,14.93
2022-09-14T18:51:30.280Z,14.32
2022-09-14T18:54:00.228Z,13.20
2022-09-14T18:56:28.304Z,12.63
2022-09-14T18:58:55.637Z,12.02
2022-09-14T19:01:22.858Z,12.93
2022-09-14T19:03:50.244Z,12.48
2022-09-14T19:06:19.054Z,12.30
2022-09-14T19:08:47.003Z,12.15
2022-09-14T19:11:36.024Z,11.70
2022-09-14T19:14:09.502Z,10.88
2022-09-14T19:16:39.612Z,11.52
2022-09-14T19:19:08.171Z,11.70
2022-09-14T19:21:36.218Z,11.13
2022-09-14T19:24:08.096Z,10.10
2022-09-14T19:26:43.902Z,11.38
2022-09-14T19:29:14.334Z,9.85
2022-09-14T19:31:41.778Z,10.52
2022-09-14T19:34:10.548Z,10.40
2022-09-14T19:36:37.787Z,9.77
2022-09-14T19:39:05.284Z,9.65
2022-09-14T19:41:33.868Z,9.73
2022-09-14T19:44:02.303Z,9.48
2022-09-14T19:46:31.534Z,9.98
2022-09-14T19:48:58.724Z,10.30
2022-09-14T19:51:29.375Z,9.18
2022-09-14T19:53:59.366Z,8.82
2022-09-14T19:56:28.982Z,9.73
2022-09-14T19:58:58.313Z,8.80
2022-09-14T20:01:29.408Z,9.18
2022-09-14T20:03:57.750Z,9.38
2022-09-14T20:06:31.752Z,9.05
2022-09-14T20:11:38.567Z,9.45
2022-09-14T20:14:08.139Z,9.90
2022-09-14T20:16:38.657Z,9.50
2022-09-14T20:19:10.465Z,9.93
2022-09-14T20:21:38.578Z,9.82
2022-09-14T20:24:22.941Z,9.38
2022-09-14T20:26:51.315Z,10.32
2022-09-14T20:29:20.184Z,9.07
2022-09-14T20:31:47.912Z,8.68
2022-09-14T20:34:18.516Z,8.18
2022-09-14T20:36:45.567Z,7.53
2022-09-14T20:39:12.662Z,8.35
2022-09-14T20:41:40.113Z,7.22
2022-09-14T20:44:07.440Z,7.43
2022-09-14T20:46:39.389Z,8.00
2022-09-14T20:49:11.515Z,6.85
2022-09-14T20:51:39.560Z,8.07
2022-09-14T20:54:07.717Z,6.72
2022-09-14T20:56:35.962Z,6.97
2022-09-14T21:02:14.685Z,8.00
2022-09-14T21:04:42.207Z,7.07
2022-09-14T21:07:11.277Z,6.28
2022-09-14T21:09:38.377Z,7.72
2022-09-14T21:12:05.507Z,6.70
2022-09-14T21:14:32.701Z,7.10
2022-09-14T21:16:59.814Z,7.00
2022-09-14T21:19:29.314Z,6.72
2022-09-14T21:21:56.926Z,7.00
2022-09-14T21:24:24.324Z,7.22
2022-09-14T21:26:54.321Z,7.20
2022-09-14T21:29:24.111Z,7.13
2022-09-14T21:31:52.216Z,8.68
2022-09-14T21:34:19.832Z,6.95
2022-09-14T21:36:49.436Z,6.47
2022-09-14T21:39:21.776Z,6.90
2022-09-14T21:41:53.440Z,6.63
2022-09-14T21:44:29.057Z,7.07
2022-09-14T21:46:56.115Z,7.00
2022-09-14T21:49:23.371Z,7.07
2022-09-14T21:51:50.592Z,5.45
2022-09-14T21:54:17.685Z,6.60
2022-09-14T21:56:46.892Z,5.10
2022-09-14T21:59:17.337Z,4.90
2022-09-14T22:01:44.612Z,4.28
2022-09-14T22:04:15.938Z,4.95
2022-09-14T22:06:44.372Z,5.15
2022-09-14T22:09:12.993Z,3.90
2022-09-14T22:11:40.040Z,4.13
2022-09-14T22:14:14.157Z,4.65
2022-09-14T22:16:41.644Z,3.75
2022-09-14T22:19:16.633Z,4.70
2022-09-14T22:21:44.382Z,4.72
2022-09-14T22:24:14.922Z,4.28
2022-09-14T22:26:42.548Z,4.38
2022-09-14T22:29:10.975Z,4.25
2022-09-14T22:31:40.199Z,4.70
2022-09-14T22:34:08.230Z,4.53
2022-09-14T22:36:36.024Z,4.80
2022-09-14T22:39:04.691Z,4.80
2022-09-14T22:41:31.880Z,4.40
2022-09-14T22:43:58.951Z,4.25
2022-09-14T22:46:26.475Z,4.30
2022-09-14T22:48:54.333Z,3.90
2022-09-14T22:51:25.137Z,3.67
2022-09-14T22:53:53.062Z,3.25
2022-09-14T22:56:23.427Z,3.95
2022-09-14T22:58:51.104Z,3.75
2022-09-14T23:01:21.147Z,3.65
2022-09-14T23:03:48.320Z,3.00
2022-09-14T23:06:15.692Z,3.67
2022-09-14T23:08:43.173Z,4.13
2022-09-14T23:11:12.208Z,3.50
2022-09-14T23:13:40.966Z,3.88
2022-09-14T23:16:11.813Z,3.50
2022-09-14T23:18:41.100Z,3.17
2022-09-14T23:21:08.520Z,3.65
2022-09-14T23:23:35.927Z,3.78
2022-09-14T23:26:06.859Z,3.88
2022-09-14T23:28:34.320Z,3.03
2022-09-14T23:43:59.117Z,2.80
2022-09-14T23:46:26.432Z,2.63
2022-09-14T23:48:53.614Z,2.47
2022-09-14T23:51:20.805Z,2.63
2022-09-14T23:53:48.113Z,3.53
2022-09-14T23:59:00.053Z,2.97
